Terminal Aerodrome Forecast
Issued by NWS Wilmington, OH

Current Version | Previous Version | Text Only | Print | Product List | Glossary Off
Versions: 1 2 3 4 5 6 7 8 9 10 11 12 13 14 15 16 17 18 19 20 21 22 23 24 25 26 27 28 29 30 31 32

852
FTUS41 KILN 022329
TAFCVG
TAF
KCVG 022329Z 0300/0406 31008KT P6SM SCT030 BKN110
     FM030200 33006KT P6SM SCT025 OVC050
     FM030600 36005KT P6SM SCT012 OVC025
     FM030900 36005KT 4SM BR SCT008 BKN012 OVC025
     FM031400 35006KT P6SM SCT012 OVC025
     FM031900 32008KT P6SM BKN040
     FM040300 28005KT P6SM SCT040 SCT100=

USA.gov is the U.S. government's official web portal to all federal, state and local government web resources and services.